createdAt,value
2023-04-16T00:00:22.561Z,100.00
2023-04-16T00:02:50.755Z,100.00
2023-04-16T00:05:19.455Z,100.00
2023-04-16T00:07:47.510Z,100.00
2023-04-16T00:10:16.110Z,100.00
2023-04-16T00:12:45.671Z,100.00
2023-04-16T00:15:13.740Z,100.00
2023-04-16T00:17:41.881Z,100.00
2023-04-16T00:20:11.528Z,100.00
2023-04-16T00:22:39.593Z,100.00
2023-04-16T00:25:08.039Z,100.00
2023-04-16T00:27:36.321Z,100.00
2023-04-16T00:30:06.841Z,100.00
2023-04-16T00:32:35.415Z,100.00
2023-04-16T00:35:03.515Z,100.00
2023-04-16T00:37:31.776Z,100.00
2023-04-16T00:39:59.829Z,100.00
2023-04-16T00:42:27.882Z,100.00
2023-04-16T00:44:56.520Z,100.00
2023-04-16T00:47:28.145Z,100.00
2023-04-16T00:49:56.259Z,100.00
2023-04-16T00:52:24.320Z,100.00
2023-04-16T00:54:53.130Z,100.00
2023-04-16T00:57:24.013Z,100.00
2023-04-16T00:59:52.792Z,100.00
2023-04-16T01:02:20.974Z,100.00
2023-04-16T01:04:53.033Z,100.00
2023-04-16T01:07:21.124Z,100.00
2023-04-16T01:09:49.201Z,100.00
2023-04-16T01:12:17.576Z,100.00
2023-04-16T01:14:45.622Z,100.00
2023-04-16T01:17:13.674Z,100.00
2023-04-16T01:19:41.719Z,100.00
2023-04-16T01:22:11.263Z,100.00
2023-04-16T01:24:39.631Z,100.00
2023-04-16T01:27:12.006Z,100.00
2023-04-16T01:29:40.084Z,100.00
2023-04-16T01:32:08.664Z,100.00
2023-04-16T01:34:42.050Z,100.00
2023-04-16T01:37:13.340Z,100.00
2023-04-16T01:39:41.444Z,100.00
2023-04-16T01:42:10.015Z,100.00
2023-04-16T01:44:38.092Z,100.00
2023-04-16T01:47:06.173Z,100.00
2023-04-16T01:49:34.645Z,100.00
2023-04-16T01:52:02.702Z,100.00
2023-04-16T01:54:32.980Z,100.00
2023-04-16T01:57:01.798Z,100.00
2023-04-16T01:59:29.903Z,100.00
2023-04-16T02:01:58.043Z,100.00
2023-04-16T02:04:26.235Z,100.00
2023-04-16T02:06:54.370Z,100.00
2023-04-16T02:09:23.000Z,100.00
2023-04-16T02:11:52.503Z,100.00
2023-04-16T02:14:22.038Z,100.00
2023-04-16T02:16:50.214Z,100.00
2023-04-16T02:19:32.857Z,100.00
2023-04-16T02:22:01.742Z,100.00
2023-04-16T02:24:30.033Z,100.00
2023-04-16T02:27:01.826Z,100.00
2023-04-16T02:29:29.856Z,100.00
2023-04-16T02:32:05.584Z,100.00
2023-04-16T02:34:35.805Z,100.00
2023-04-16T02:37:04.592Z,100.00
2023-04-16T02:39:32.811Z,100.00
2023-04-16T02:42:02.888Z,100.00
2023-04-16T02:44:31.030Z,100.00
2023-04-16T02:46:59.167Z,100.00
2023-04-16T02:49:27.237Z,100.00
2023-04-16T02:51:55.714Z,100.00
2023-04-16T02:54:23.786Z,100.00
2023-04-16T02:56:51.882Z,100.00
2023-04-16T02:59:21.331Z,100.00
2023-04-16T03:01:49.570Z,100.00
2023-04-16T03:04:18.158Z,100.00
2023-04-16T03:06:46.332Z,100.00
2023-04-16T03:09:15.029Z,100.00
2023-04-16T03:11:43.084Z,100.00
2023-04-16T03:14:11.871Z,100.00
2023-04-16T03:16:41.516Z,100.00
2023-04-16T03:19:10.216Z,100.00
2023-04-16T03:21:38.520Z,100.00
2023-04-16T03:24:06.613Z,100.00
2023-04-16T03:26:34.687Z,100.00
2023-04-16T03:29:03.232Z,100.00
2023-04-16T03:31:33.247Z,100.00
2023-04-16T03:34:03.422Z,100.00
2023-04-16T03:36:32.652Z,100.00
2023-04-16T03:39:01.041Z,100.00
2023-04-16T03:41:30.024Z,100.00
2023-04-16T03:43:59.533Z,100.00
2023-04-16T03:46:27.635Z,100.00
2023-04-16T03:48:56.046Z,100.00
2023-04-16T03:51:26.557Z,100.00
2023-04-16T03:53:54.839Z,100.00
2023-04-16T03:56:23.310Z,100.00
2023-04-16T03:58:53.847Z,100.00
2023-04-16T04:01:22.020Z,100.00
2023-04-16T04:03:50.567Z,100.00
2023-04-16T04:06:18.777Z,100.00
2023-04-16T04:08:48.182Z,100.00
2023-04-16T04:11:16.911Z,100.00
2023-04-16T04:13:45.801Z,100.00
2023-04-16T04:16:14.743Z,100.00
2023-04-16T04:18:44.752Z,100.00
2023-04-16T04:21:12.992Z,100.00
2023-04-16T04:23:41.654Z,100.00
2023-04-16T04:26:12.691Z,100.00
2023-04-16T04:28:41.825Z,100.00
2023-04-16T04:31:09.931Z,100.00
2023-04-16T04:33:38.042Z,100.00
2023-04-16T04:36:06.566Z,100.00
2023-04-16T04:38:36.343Z,100.00
2023-04-16T04:41:05.758Z,100.00
2023-04-16T04:43:38.609Z,100.00
2023-04-16T04:46:07.810Z,100.00
2023-04-16T04:48:36.003Z,100.00
2023-04-16T04:51:05.422Z,100.00
2023-04-16T04:53:34.928Z,100.00
2023-04-16T04:56:12.236Z,100.00
2023-04-16T04:58:42.864Z,100.00
2023-04-16T05:01:11.285Z,100.00
2023-04-16T05:03:39.494Z,100.00
2023-04-16T05:06:08.355Z,100.00
2023-04-16T05:08:36.475Z,100.00
2023-04-16T05:11:04.593Z,100.00
2023-04-16T05:13:32.610Z,100.00
2023-04-16T05:16:02.523Z,100.00
2023-04-16T05:18:31.171Z,100.00
2023-04-16T05:20:59.219Z,100.00
2023-04-16T05:23:27.255Z,100.00
2023-04-16T05:25:55.402Z,100.00
2023-04-16T05:28:23.495Z,100.00
2023-04-16T05:30:52.029Z,100.00
2023-04-16T05:33:21.948Z,100.00
2023-04-16T05:35:50.125Z,100.00
2023-04-16T05:38:18.202Z,100.00
2023-04-16T05:40:46.238Z,100.00
2023-04-16T05:43:14.284Z,100.00
2023-04-16T05:45:42.313Z,100.00
2023-04-16T05:48:10.934Z,100.00
2023-04-16T05:50:40.416Z,100.00
2023-04-16T05:53:09.582Z,100.00
2023-04-16T05:55:37.795Z,100.00
2023-04-16T05:58:05.886Z,100.00
2023-04-16T06:00:34.354Z,100.00
2023-04-16T06:03:02.646Z,100.00
2023-04-16T06:05:31.062Z,100.00
2023-04-16T06:08:00.669Z,100.00
2023-04-16T06:10:28.809Z,100.00
2023-04-16T06:12:57.280Z,100.00
2023-04-16T06:15:25.354Z,100.00
2023-04-16T06:17:53.473Z,100.00
2023-04-16T06:20:21.563Z,100.00
2023-04-16T06:22:49.591Z,100.00
2023-04-16T06:25:19.267Z,100.00
2023-04-16T06:27:47.672Z,100.00
2023-04-16T06:30:16.128Z,100.00
2023-04-16T06:32:44.376Z,100.00
2023-04-16T06:35:12.547Z,100.00
2023-04-16T06:37:40.660Z,100.00
2023-04-16T06:40:10.285Z,100.00
2023-04-16T06:42:39.773Z,100.00
2023-04-16T06:45:09.502Z,100.00
2023-04-16T06:47:37.587Z,100.00
2023-04-16T06:50:06.338Z,100.00
2023-04-16T06:52:34.416Z,100.00
2023-04-16T06:55:02.922Z,100.00
2023-04-16T06:57:30.992Z,100.00
2023-04-16T07:00:00.462Z,100.00
2023-04-16T07:02:28.601Z,100.00
2023-04-16T07:04:56.831Z,100.00
2023-04-16T07:07:25.437Z,100.00
2023-04-16T07:09:53.476Z,100.00
2023-04-16T07:12:22.782Z,100.00
2023-04-16T07:14:51.083Z,100.00
2023-04-16T07:17:20.534Z,100.00
2023-04-16T07:19:49.054Z,100.00
2023-04-16T07:22:17.154Z,100.00
2023-04-16T07:24:45.466Z,100.00
2023-04-16T07:27:13.519Z,100.00
2023-04-16T07:29:41.577Z,100.00
2023-04-16T07:32:09.779Z,100.00
2023-04-16T07:34:39.687Z,100.00
2023-04-16T07:37:07.754Z,100.00
2023-04-16T07:39:35.841Z,100.00
2023-04-16T07:42:03.888Z,100.00
2023-04-16T07:44:31.963Z,100.00
2023-04-16T07:47:00.074Z,100.00
2023-04-16T07:49:28.582Z,100.00
2023-04-16T07:51:58.009Z,100.00
2023-04-16T07:54:27.804Z,100.00
2023-04-16T07:56:57.103Z,100.00
2023-04-16T07:59:25.365Z,100.00
2023-04-16T08:01:54.449Z,100.00
2023-04-16T08:04:25.398Z,100.00
2023-04-16T08:06:53.916Z,100.00
2023-04-16T08:09:23.892Z,100.00
2023-04-16T08:11:52.336Z,100.00
2023-04-16T08:14:20.507Z,100.00
2023-04-16T08:16:49.036Z,100.00
2023-04-16T08:19:17.102Z,100.00
2023-04-16T08:21:45.203Z,100.00
2023-04-16T08:24:13.273Z,100.00
2023-04-16T08:26:42.765Z,100.00
2023-04-16T08:29:11.091Z,100.00
2023-04-16T08:31:39.831Z,100.00
2023-04-16T08:34:07.892Z,100.00
2023-04-16T08:36:35.962Z,100.00
2023-04-16T08:39:04.059Z,100.00
2023-04-16T08:41:33.486Z,100.00
2023-04-16T08:44:05.139Z,100.00
2023-04-16T08:46:33.288Z,100.00
2023-04-16T08:49:01.380Z,100.00
2023-04-16T08:51:30.027Z,100.00
2023-04-16T08:54:01.095Z,100.00
2023-04-16T08:56:29.183Z,100.00
2023-04-16T08:58:58.482Z,100.00
2023-04-16T09:01:27.995Z,100.00
2023-04-16T09:03:56.292Z,100.00
2023-04-16T09:06:24.467Z,100.00
2023-04-16T09:08:52.545Z,100.00
2023-04-16T09:11:20.649Z,100.00
2023-04-16T09:13:49.134Z,100.00
2023-04-16T09:16:17.318Z,100.00
2023-04-16T09:18:47.920Z,100.00
2023-04-16T09:21:16.039Z,100.00
2023-04-16T09:23:44.096Z,100.00
2023-04-16T09:26:12.168Z,100.00
2023-04-16T09:28:40.899Z,100.00
2023-04-16T09:31:10.705Z,100.00
2023-04-16T09:33:38.819Z,100.00
2023-04-16T09:36:08.638Z,100.00
2023-04-16T09:38:49.777Z,100.00
2023-04-16T09:41:17.913Z,100.00
2023-04-16T09:43:56.774Z,100.00
2023-04-16T09:46:25.631Z,100.00
2023-04-16T09:48:53.751Z,100.00
2023-04-16T09:51:23.213Z,100.00
2023-04-16T09:53:53.144Z,100.00
2023-04-16T09:56:21.340Z,100.00
2023-04-16T09:58:49.533Z,100.00
2023-04-16T10:01:19.307Z,100.00
2023-04-16T10:03:50.727Z,100.00
2023-04-16T10:06:19.713Z,100.00
2023-04-16T10:08:50.419Z,100.00
2023-04-16T10:11:18.833Z,100.00
2023-04-16T10:13:47.112Z,100.00
2023-04-16T10:16:15.225Z,100.00
2023-04-16T10:18:44.335Z,100.00
2023-04-16T10:21:12.863Z,100.00
2023-04-16T10:23:41.202Z,100.00
2023-04-16T10:26:10.738Z,100.00
2023-04-16T10:28:38.906Z,100.00
2023-04-16T10:31:08.784Z,100.00
2023-04-16T10:33:37.924Z,100.00
2023-04-16T10:36:10.626Z,100.00
2023-04-16T10:38:42.012Z,100.00
2023-04-16T10:41:11.496Z,100.00
2023-04-16T10:43:44.054Z,100.00
2023-04-16T10:46:21.976Z,100.00
2023-04-16T10:48:50.963Z,100.00
2023-04-16T10:51:27.860Z,100.00
2023-04-16T10:53:56.706Z,100.00
2023-04-16T10:56:26.355Z,100.00
2023-04-16T10:58:55.293Z,100.00
2023-04-16T11:01:31.512Z,100.00
2023-04-16T11:04:01.818Z,100.00
2023-04-16T11:06:32.056Z,100.00
2023-04-16T11:09:00.338Z,100.00
2023-04-16T11:11:29.873Z,98.06
2023-04-16T11:13:58.189Z,99.03
2023-04-16T11:16:29.423Z,97.36
2023-04-16T11:18:57.673Z,100.00
2023-04-16T11:21:26.744Z,99.39
2023-04-16T11:23:55.024Z,100.00
2023-04-16T11:26:26.846Z,98.86
2023-04-16T11:28:57.380Z,100.00
2023-04-16T11:31:27.248Z,100.00
2023-04-16T11:33:57.627Z,100.00
2023-04-16T11:36:27.813Z,100.00
2023-04-16T11:39:02.750Z,100.00
2023-04-16T11:41:30.839Z,100.00
2023-04-16T11:44:00.628Z,100.00
2023-04-16T11:46:39.368Z,100.00
2023-04-16T11:49:07.489Z,100.00
2023-04-16T11:51:41.727Z,100.00
2023-04-16T11:54:12.104Z,100.00
2023-04-16T11:56:41.125Z,100.00
2023-04-16T11:59:14.427Z,100.00
2023-04-16T12:01:45.535Z,100.00
2023-04-16T12:04:15.071Z,100.00
2023-04-16T12:06:48.276Z,100.00
2023-04-16T12:09:25.550Z,100.00
2023-04-16T12:11:53.621Z,100.00
2023-04-16T12:14:23.948Z,100.00
2023-04-16T12:16:52.093Z,100.00
2023-04-16T12:19:20.252Z,100.00
2023-04-16T12:21:49.271Z,100.00
2023-04-16T12:24:20.711Z,100.00
2023-04-16T12:26:49.394Z,100.00
2023-04-16T12:29:18.574Z,100.00
2023-04-16T12:31:48.248Z,100.00
2023-04-16T12:34:17.133Z,100.00
2023-04-16T12:36:45.266Z,100.00
2023-04-16T12:39:13.840Z,100.00
2023-04-16T12:41:43.093Z,99.94
2023-04-16T12:44:12.993Z,100.00
2023-04-16T12:46:41.789Z,100.00
2023-04-16T12:49:11.973Z,100.00
2023-04-16T12:51:41.005Z,100.00
2023-04-16T12:54:09.501Z,100.00
2023-04-16T12:56:37.599Z,100.00
2023-04-16T12:59:05.674Z,99.02
2023-04-16T13:01:36.206Z,99.69
2023-04-16T13:04:04.617Z,97.06
2023-04-16T13:06:36.791Z,95.73
2023-04-16T13:09:05.345Z,96.42
2023-04-16T13:11:33.583Z,97.62
2023-04-16T13:14:01.672Z,98.69
2023-04-16T13:16:29.784Z,99.63
2023-04-16T13:18:58.523Z,100.00
2023-04-16T13:21:27.262Z,100.00
2023-04-16T13:23:56.833Z,100.00
2023-04-16T13:26:24.924Z,100.00
2023-04-16T13:28:53.060Z,98.91
2023-04-16T13:31:22.207Z,99.48
2023-04-16T13:33:51.511Z,100.00
2023-04-16T13:36:19.577Z,100.00
2023-04-16T13:38:47.693Z,100.00
2023-04-16T13:41:17.171Z,100.00
2023-04-16T13:43:45.219Z,100.00
2023-04-16T13:46:13.815Z,100.00
2023-04-16T13:48:41.987Z,100.00
2023-04-16T13:51:10.106Z,100.00
2023-04-16T13:53:38.209Z,100.00
2023-04-16T13:56:07.199Z,100.00
2023-04-16T13:58:36.611Z,100.00
2023-04-16T14:01:05.164Z,100.00
2023-04-16T14:03:36.096Z,100.00
2023-04-16T14:06:05.076Z,100.00
2023-04-16T14:08:33.337Z,100.00
2023-04-16T14:11:02.188Z,100.00
2023-04-16T14:13:30.552Z,100.00
2023-04-16T14:16:00.028Z,100.00
2023-04-16T14:18:28.117Z,100.00
2023-04-16T14:20:56.215Z,100.00
2023-04-16T14:23:24.292Z,100.00
2023-04-16T14:25:53.112Z,100.00
2023-04-16T14:28:21.392Z,100.00
2023-04-16T14:30:49.588Z,100.00
2023-04-16T14:33:19.037Z,100.00
2023-04-16T14:35:47.142Z,100.00
2023-04-16T14:38:15.627Z,100.00
2023-04-16T14:40:43.709Z,100.00
2023-04-16T14:43:11.761Z,100.00
2023-04-16T14:45:39.880Z,100.00
2023-04-16T14:48:08.174Z,100.00
2023-04-16T14:50:38.972Z,100.00
2023-04-16T14:53:07.486Z,100.00
2023-04-16T14:55:35.744Z,100.00
2023-04-16T14:58:04.128Z,100.00
2023-04-16T15:00:32.214Z,100.00
2023-04-16T15:03:00.457Z,100.00
2023-04-16T15:05:30.487Z,100.00
2023-04-16T15:08:04.063Z,100.00
2023-04-16T15:10:33.491Z,100.00
2023-04-16T15:13:02.963Z,100.00
2023-04-16T15:15:31.280Z,100.00
2023-04-16T15:18:00.435Z,100.00
2023-04-16T15:20:28.670Z,100.00
2023-04-16T15:22:56.863Z,100.00
2023-04-16T15:25:26.630Z,100.00
2023-04-16T15:27:54.748Z,100.00
2023-04-16T15:30:22.868Z,100.00
2023-04-16T15:32:51.458Z,100.00
2023-04-16T15:35:19.737Z,100.00
2023-04-16T15:37:48.240Z,100.00
2023-04-16T15:40:19.038Z,100.00
2023-04-16T15:42:51.960Z,100.00
2023-04-16T15:45:22.954Z,100.00
2023-04-16T15:47:51.491Z,100.00
2023-04-16T15:50:19.997Z,100.00
2023-04-16T15:52:48.262Z,100.00
2023-04-16T15:55:16.539Z,100.00
2023-04-16T15:57:44.605Z,100.00
2023-04-16T16:00:17.267Z,100.00
2023-04-16T16:02:46.494Z,100.00
2023-04-16T16:05:15.143Z,100.00
2023-04-16T16:07:43.387Z,100.00
2023-04-16T16:10:13.191Z,100.00
2023-04-16T16:12:41.678Z,100.00
2023-04-16T16:15:11.263Z,100.00
2023-04-16T16:17:41.583Z,100.00
2023-04-16T16:20:10.935Z,100.00
2023-04-16T16:22:40.232Z,100.00
2023-04-16T16:25:10.162Z,100.00
2023-04-16T16:27:38.662Z,100.00
2023-04-16T16:30:08.176Z,100.00
2023-04-16T16:32:36.627Z,100.00
2023-04-16T16:35:07.127Z,100.00
2023-04-16T16:37:35.274Z,100.00
2023-04-16T16:40:03.731Z,100.00
2023-04-16T16:42:31.906Z,100.00
2023-04-16T16:45:00.024Z,100.00
2023-04-16T16:47:28.167Z,100.00
2023-04-16T16:49:56.312Z,100.00
2023-04-16T16:52:26.107Z,100.00
2023-04-16T16:54:54.691Z,100.00
2023-04-16T16:57:23.888Z,100.00
2023-04-16T16:59:52.007Z,100.00
2023-04-16T17:02:20.174Z,100.00
2023-04-16T17:04:48.280Z,100.00
2023-04-16T17:07:16.327Z,100.00
2023-04-16T17:09:46.382Z,100.00
2023-04-16T17:12:14.526Z,100.00
2023-04-16T17:14:42.597Z,100.00
2023-04-16T17:17:10.641Z,100.00
2023-04-16T17:19:39.392Z,100.00
2023-04-16T17:22:07.499Z,100.00
2023-04-16T17:24:35.594Z,100.00
2023-04-16T17:27:05.223Z,100.00
2023-04-16T17:29:33.268Z,100.00
2023-04-16T17:32:01.555Z,100.00
2023-04-16T17:34:29.829Z,100.00
2023-04-16T17:36:58.297Z,100.00
2023-04-16T17:39:26.414Z,100.00
2023-04-16T17:41:58.421Z,100.00
2023-04-16T17:44:28.101Z,100.00
2023-04-16T17:46:56.209Z,100.00
2023-04-16T17:49:24.826Z,100.00
2023-04-16T17:51:53.755Z,100.00
2023-04-16T17:54:21.875Z,100.00
2023-04-16T17:56:49.929Z,100.00
2023-04-16T17:59:18.036Z,100.00
2023-04-16T18:01:49.535Z,100.00
2023-04-16T18:04:18.113Z,100.00
2023-04-16T18:06:46.628Z,100.00
2023-04-16T18:09:15.510Z,100.00
2023-04-16T18:11:43.538Z,100.00
2023-04-16T18:14:13.829Z,100.00
2023-04-16T18:16:42.319Z,100.00
2023-04-16T18:19:11.818Z,100.00
2023-04-16T18:21:39.955Z,100.00
2023-04-16T18:24:08.577Z,100.00
2023-04-16T18:26:36.852Z,100.00
2023-04-16T18:29:06.049Z,100.00
2023-04-16T18:31:34.218Z,100.00
2023-04-16T18:34:02.319Z,100.00
2023-04-16T18:36:32.721Z,100.00
2023-04-16T18:39:02.176Z,100.00
2023-04-16T18:41:31.003Z,100.00
2023-04-16T18:43:59.738Z,100.00
2023-04-16T18:46:27.928Z,100.00
2023-04-16T18:48:56.164Z,100.00
2023-04-16T18:51:24.349Z,100.00
2023-04-16T18:53:53.793Z,100.00
2023-04-16T18:56:22.312Z,100.00
2023-04-16T18:58:50.474Z,100.00
2023-04-16T19:01:18.653Z,100.00
2023-04-16T19:03:47.470Z,100.00
2023-04-16T19:06:15.644Z,100.00
2023-04-16T19:08:43.754Z,100.00
2023-04-16T19:11:13.822Z,100.00
2023-04-16T19:13:41.892Z,100.00
2023-04-16T19:16:11.724Z,100.00
2023-04-16T19:18:39.962Z,100.00
2023-04-16T19:21:10.033Z,100.00
2023-04-16T19:23:38.437Z,100.00
2023-04-16T19:26:06.676Z,100.00
2023-04-16T19:28:36.229Z,100.00
2023-04-16T19:31:04.288Z,100.00
2023-04-16T19:33:32.502Z,100.00
2023-04-16T19:36:01.846Z,100.00
2023-04-16T19:38:31.853Z,100.00
2023-04-16T19:40:59.934Z,100.00
2023-04-16T19:43:30.701Z,100.00
2023-04-16T19:46:02.172Z,100.00
2023-04-16T19:48:30.471Z,100.00
2023-04-16T19:51:02.760Z,100.00
2023-04-16T19:53:30.947Z,100.00
2023-04-16T19:55:58.992Z,100.00
2023-04-16T19:58:27.127Z,100.00
2023-04-16T20:00:55.729Z,100.00
2023-04-16T20:03:25.363Z,100.00
2023-04-16T20:05:53.795Z,100.00
2023-04-16T20:08:21.925Z,100.00
2023-04-16T20:10:50.056Z,100.00
2023-04-16T20:13:18.868Z,100.00
2023-04-16T20:15:47.256Z,100.00
2023-04-16T20:18:15.408Z,100.00
2023-04-16T20:20:44.864Z,100.00
2023-04-16T20:23:12.996Z,100.00
2023-04-16T20:25:42.618Z,100.00
2023-04-16T20:28:10.756Z,100.00
2023-04-16T20:30:39.788Z,100.00
2023-04-16T20:33:09.674Z,100.00
2023-04-16T20:35:37.793Z,100.00
2023-04-16T20:38:07.269Z,100.00
2023-04-16T20:40:38.108Z,100.00
2023-04-16T20:43:10.384Z,100.00
2023-04-16T20:45:40.969Z,100.00
2023-04-16T20:48:09.816Z,100.00
2023-04-16T20:50:38.002Z,100.00
2023-04-16T20:53:07.469Z,100.00
2023-04-16T20:55:35.557Z,100.00
2023-04-16T20:58:03.620Z,100.00
2023-04-16T21:00:31.758Z,100.00
2023-04-16T21:03:00.274Z,100.00
2023-04-16T21:05:30.039Z,100.00
2023-04-16T21:07:58.079Z,100.00
2023-04-16T21:10:27.605Z,100.00
2023-04-16T21:12:55.687Z,100.00
2023-04-16T21:15:24.242Z,100.00
2023-04-16T21:17:52.334Z,100.00
2023-04-16T21:20:20.496Z,100.00
2023-04-16T21:22:48.604Z,100.00
2023-04-16T21:25:16.944Z,100.00
2023-04-16T21:27:46.764Z,100.00
2023-04-16T21:30:15.883Z,100.00
2023-04-16T21:32:43.968Z,100.00
2023-04-16T21:35:12.213Z,100.00
2023-04-16T21:37:40.285Z,100.00
2023-04-16T21:40:09.396Z,100.00
2023-04-16T21:42:39.751Z,100.00
2023-04-16T21:45:10.296Z,100.00
2023-04-16T21:47:38.606Z,100.00
2023-04-16T21:50:07.500Z,100.00
2023-04-16T21:52:40.185Z,100.00
2023-04-16T21:55:10.299Z,100.00
2023-04-16T21:57:38.361Z,100.00
2023-04-16T22:00:12.295Z,100.00
2023-04-16T22:02:42.929Z,100.00
2023-04-16T22:05:11.408Z,100.00
2023-04-16T22:07:39.434Z,100.00
2023-04-16T22:10:09.750Z,100.00
2023-04-16T22:12:39.924Z,100.00
2023-04-16T22:15:10.320Z,100.00
2023-04-16T22:17:38.748Z,100.00
2023-04-16T22:20:11.549Z,100.00
2023-04-16T22:22:39.937Z,100.00
2023-04-16T22:25:08.587Z,100.00
2023-04-16T22:27:36.633Z,100.00
2023-04-16T22:30:05.081Z,100.00
2023-04-16T22:32:33.206Z,100.00
2023-04-16T22:35:01.476Z,100.00
2023-04-16T22:37:31.348Z,100.00
2023-04-16T22:39:59.346Z,100.00
2023-04-16T22:42:27.430Z,100.00
2023-04-16T22:44:55.430Z,100.00
2023-04-16T22:47:23.581Z,100.00
2023-04-16T22:49:51.963Z,100.00
2023-04-16T22:52:20.002Z,100.00
2023-04-16T22:54:49.423Z,100.00
2023-04-16T22:57:21.080Z,100.00
2023-04-16T22:59:49.298Z,100.00
2023-04-16T23:02:17.471Z,100.00
2023-04-16T23:04:46.500Z,100.00
2023-04-16T23:07:14.649Z,100.00
2023-04-16T23:09:42.644Z,100.00
2023-04-16T23:12:12.090Z,100.00
2023-04-16T23:14:44.683Z,100.00
2023-04-16T23:17:13.853Z,100.00
2023-04-16T23:19:41.965Z,100.00
2023-04-16T23:22:10.073Z,100.00
2023-04-16T23:24:38.119Z,100.00
2023-04-16T23:27:06.124Z,100.00
2023-04-16T23:29:36.046Z,100.00
2023-04-16T23:32:04.153Z,100.00
2023-04-16T23:34:32.161Z,100.00
2023-04-16T23:37:00.270Z,100.00
2023-04-16T23:39:28.372Z,100.00
2023-04-16T23:41:57.197Z,100.00
2023-04-16T23:44:25.340Z,100.00
2023-04-16T23:46:54.855Z,100.00
2023-04-16T23:49:22.975Z,100.00
2023-04-16T23:51:51.023Z,100.00
2023-04-16T23:54:19.113Z,100.00
2023-04-16T23:56:47.504Z,100.00
2023-04-16T23:59:16.812Z,100.00
